sensor_id;sensor_type;location;lat;lon;timestamp;P1;durP1;ratioP1;P2;durP2;ratioP2
51384;SDS011;37478;55.682;37.462;2023-04-12T00:01:32;28.95;;;18.30;;
51384;SDS011;37478;55.682;37.462;2023-04-12T00:03:58;33.85;;;19.17;;
51384;SDS011;37478;55.682;37.462;2023-04-12T00:06:23;34.72;;;19.75;;
51384;SDS011;37478;55.682;37.462;2023-04-12T00:08:51;31.63;;;18.80;;
51384;SDS011;37478;55.682;37.462;2023-04-12T00:11:17;34.53;;;17.40;;
51384;SDS011;37478;55.682;37.462;2023-04-12T00:13:42;38.20;;;19.15;;
51384;SDS011;37478;55.682;37.462;2023-04-12T00:16:07;31.98;;;18.80;;
51384;SDS011;37478;55.682;37.462;2023-04-12T00:18:33;32.63;;;19.27;;
51384;SDS011;37478;55.682;37.462;2023-04-12T00:20:58;31.35;;;17.80;;
51384;SDS011;37478;55.682;37.462;2023-04-12T00:23:23;30.77;;;18.38;;
51384;SDS011;37478;55.682;37.462;2023-04-12T00:25:49;28.95;;;17.63;;
51384;SDS011;37478;55.682;37.462;2023-04-12T00:28:14;26.92;;;17.30;;
51384;SDS011;37478;55.682;37.462;2023-04-12T00:30:40;30.63;;;17.38;;
51384;SDS011;37478;55.682;37.462;2023-04-12T00:33:05;34.92;;;19.05;;
51384;SDS011;37478;55.682;37.462;2023-04-12T00:35:31;33.55;;;19.58;;
51384;SDS011;37478;55.682;37.462;2023-04-12T00:37:56;28.70;;;18.65;;
51384;SDS011;37478;55.682;37.462;2023-04-12T00:40:21;28.27;;;18.35;;
51384;SDS011;37478;55.682;37.462;2023-04-12T00:42:47;40.95;;;18.70;;
51384;SDS011;37478;55.682;37.462;2023-04-12T00:45:12;28.90;;;17.67;;
51384;SDS011;37478;55.682;37.462;2023-04-12T00:47:38;29.17;;;18.25;;
51384;SDS011;37478;55.682;37.462;2023-04-12T00:50:04;31.08;;;19.63;;
51384;SDS011;37478;55.682;37.462;2023-04-12T00:52:31;34.22;;;20.67;;
51384;SDS011;37478;55.682;37.462;2023-04-12T00:54:58;28.90;;;19.10;;
51384;SDS011;37478;55.682;37.462;2023-04-12T00:57:24;29.98;;;18.38;;
51384;SDS011;37478;55.682;37.462;2023-04-12T00:59:50;30.15;;;18.65;;
51384;SDS011;37478;55.682;37.462;2023-04-12T01:02:15;33.22;;;19.52;;
51384;SDS011;37478;55.682;37.462;2023-04-12T01:04:41;36.95;;;20.55;;
51384;SDS011;37478;55.682;37.462;2023-04-12T01:07:13;31.83;;;19.17;;
51384;SDS011;37478;55.682;37.462;2023-04-12T01:15:09;36.15;;;19.30;;
51384;SDS011;37478;55.682;37.462;2023-04-12T01:20:08;36.47;;;19.88;;
51384;SDS011;37478;55.682;37.462;2023-04-12T01:27:53;32.83;;;19.83;;
51384;SDS011;37478;55.682;37.462;2023-04-12T01:30:20;35.92;;;19.90;;
51384;SDS011;37478;55.682;37.462;2023-04-12T01:32:50;32.60;;;19.30;;
51384;SDS011;37478;55.682;37.462;2023-04-12T01:35:17;39.53;;;20.65;;
51384;SDS011;37478;55.682;37.462;2023-04-12T01:37:43;38.42;;;21.08;;
51384;SDS011;37478;55.682;37.462;2023-04-12T01:40:08;36.22;;;19.27;;
51384;SDS011;37478;55.682;37.462;2023-04-12T01:42:34;34.00;;;20.67;;
51384;SDS011;37478;55.682;37.462;2023-04-12T01:45:00;36.38;;;20.30;;
51384;SDS011;37478;55.682;37.462;2023-04-12T01:47:26;36.20;;;21.73;;
51384;SDS011;37478;55.682;37.462;2023-04-12T01:52:35;33.63;;;21.48;;
51384;SDS011;37478;55.682;37.462;2023-04-12T01:55:03;34.30;;;20.67;;
51384;SDS011;37478;55.682;37.462;2023-04-12T01:57:29;38.72;;;21.70;;
51384;SDS011;37478;55.682;37.462;2023-04-12T01:59:55;38.17;;;22.08;;
51384;SDS011;37478;55.682;37.462;2023-04-12T02:02:22;33.80;;;20.45;;
51384;SDS011;37478;55.682;37.462;2023-04-12T02:04:48;39.40;;;22.83;;
51384;SDS011;37478;55.682;37.462;2023-04-12T02:07:13;38.17;;;21.17;;
51384;SDS011;37478;55.682;37.462;2023-04-12T02:09:39;36.38;;;19.67;;
51384;SDS011;37478;55.682;37.462;2023-04-12T02:12:05;33.70;;;20.33;;
51384;SDS011;37478;55.682;37.462;2023-04-12T02:14:31;36.10;;;22.50;;
51384;SDS011;37478;55.682;37.462;2023-04-12T02:16:56;37.78;;;21.63;;
51384;SDS011;37478;55.682;37.462;2023-04-12T02:19:26;33.72;;;20.95;;
51384;SDS011;37478;55.682;37.462;2023-04-12T02:21:51;39.00;;;21.55;;
51384;SDS011;37478;55.682;37.462;2023-04-12T02:24:17;45.40;;;24.17;;
51384;SDS011;37478;55.682;37.462;2023-04-12T02:26:42;36.38;;;21.08;;
51384;SDS011;37478;55.682;37.462;2023-04-12T02:29:08;37.45;;;21.30;;
51384;SDS011;37478;55.682;37.462;2023-04-12T02:31:34;38.88;;;24.38;;
51384;SDS011;37478;55.682;37.462;2023-04-12T02:34:00;37.35;;;23.15;;
51384;SDS011;37478;55.682;37.462;2023-04-12T02:36:25;35.75;;;21.38;;
51384;SDS011;37478;55.682;37.462;2023-04-12T02:38:51;40.85;;;23.90;;
51384;SDS011;37478;55.682;37.462;2023-04-12T02:41:19;45.33;;;23.13;;
51384;SDS011;37478;55.682;37.462;2023-04-12T02:43:45;33.10;;;20.70;;
51384;SDS011;37478;55.682;37.462;2023-04-12T02:46:14;38.58;;;22.20;;
51384;SDS011;37478;55.682;37.462;2023-04-12T02:48:39;36.83;;;20.77;;
51384;SDS011;37478;55.682;37.462;2023-04-12T02:51:05;36.55;;;21.98;;
51384;SDS011;37478;55.682;37.462;2023-04-12T02:53:30;34.38;;;20.38;;
51384;SDS011;37478;55.682;37.462;2023-04-12T02:55:55;35.58;;;20.38;;
51384;SDS011;37478;55.682;37.462;2023-04-12T02:58:21;36.70;;;20.00;;
51384;SDS011;37478;55.682;37.462;2023-04-12T03:00:48;39.28;;;23.10;;
51384;SDS011;37478;55.682;37.462;2023-04-12T03:03:14;40.78;;;20.60;;
51384;SDS011;37478;55.682;37.462;2023-04-12T03:05:41;40.50;;;22.45;;
51384;SDS011;37478;55.682;37.462;2023-04-12T03:08:11;36.42;;;21.80;;
51384;SDS011;37478;55.682;37.462;2023-04-12T03:10:37;38.15;;;21.10;;
51384;SDS011;37478;55.682;37.462;2023-04-12T03:13:02;34.92;;;20.10;;
51384;SDS011;37478;55.682;37.462;2023-04-12T03:15:28;33.45;;;20.95;;
51384;SDS011;37478;55.682;37.462;2023-04-12T03:17:54;30.33;;;17.48;;
51384;SDS011;37478;55.682;37.462;2023-04-12T03:20:19;35.47;;;20.13;;
51384;SDS011;37478;55.682;37.462;2023-04-12T03:22:45;27.88;;;18.27;;
51384;SDS011;37478;55.682;37.462;2023-04-12T03:25:10;31.20;;;17.73;;
51384;SDS011;37478;55.682;37.462;2023-04-12T03:27:36;36.22;;;19.10;;
51384;SDS011;37478;55.682;37.462;2023-04-12T03:30:02;29.52;;;18.25;;
51384;SDS011;37478;55.682;37.462;2023-04-12T03:32:27;30.35;;;18.27;;
51384;SDS011;37478;55.682;37.462;2023-04-12T03:34:53;27.83;;;18.45;;
51384;SDS011;37478;55.682;37.462;2023-04-12T03:37:19;32.08;;;19.13;;
51384;SDS011;37478;55.682;37.462;2023-04-12T03:39:44;38.78;;;19.95;;
51384;SDS011;37478;55.682;37.462;2023-04-12T03:42:12;29.20;;;19.02;;
51384;SDS011;37478;55.682;37.462;2023-04-12T03:44:37;26.73;;;17.73;;
51384;SDS011;37478;55.682;37.462;2023-04-12T03:47:02;28.13;;;18.58;;
51384;SDS011;37478;55.682;37.462;2023-04-12T03:49:27;32.95;;;21.02;;
51384;SDS011;37478;55.682;37.462;2023-04-12T03:51:53;26.60;;;18.60;;
51384;SDS011;37478;55.682;37.462;2023-04-12T03:54:18;31.92;;;18.50;;
51384;SDS011;37478;55.682;37.462;2023-04-12T03:56:43;32.03;;;19.20;;
51384;SDS011;37478;55.682;37.462;2023-04-12T03:59:09;31.90;;;17.08;;
51384;SDS011;37478;55.682;37.462;2023-04-12T04:01:34;30.25;;;16.83;;
51384;SDS011;37478;55.682;37.462;2023-04-12T04:04:00;31.50;;;16.20;;
51384;SDS011;37478;55.682;37.462;2023-04-12T04:06:25;25.05;;;17.05;;
51384;SDS011;37478;55.682;37.462;2023-04-12T04:08:51;99.60;;;55.53;;
51384;SDS011;37478;55.682;37.462;2023-04-12T04:11:17;33.28;;;19.95;;
51384;SDS011;37478;55.682;37.462;2023-04-12T04:13:42;32.30;;;18.48;;
51384;SDS011;37478;55.682;37.462;2023-04-12T04:16:07;33.25;;;18.63;;
51384;SDS011;37478;55.682;37.462;2023-04-12T04:18:35;29.05;;;15.77;;
51384;SDS011;37478;55.682;37.462;2023-04-12T04:21:01;24.10;;;14.73;;
51384;SDS011;37478;55.682;37.462;2023-04-12T04:23:26;25.58;;;14.70;;
51384;SDS011;37478;55.682;37.462;2023-04-12T04:25:53;30.95;;;16.27;;
51384;SDS011;37478;55.682;37.462;2023-04-12T04:28:18;24.13;;;14.77;;
51384;SDS011;37478;55.682;37.462;2023-04-12T04:30:44;27.23;;;14.63;;
51384;SDS011;37478;55.682;37.462;2023-04-12T04:33:13;28.40;;;15.02;;
51384;SDS011;37478;55.682;37.462;2023-04-12T04:35:40;29.92;;;16.00;;
51384;SDS011;37478;55.682;37.462;2023-04-12T04:38:06;28.55;;;16.40;;
51384;SDS011;37478;55.682;37.462;2023-04-12T04:40:31;34.38;;;17.42;;
51384;SDS011;37478;55.682;37.462;2023-04-12T04:42:57;29.67;;;17.88;;
51384;SDS011;37478;55.682;37.462;2023-04-12T04:45:23;37.42;;;20.30;;
51384;SDS011;37478;55.682;37.462;2023-04-12T04:47:52;35.85;;;20.25;;
51384;SDS011;37478;55.682;37.462;2023-04-12T04:50:17;28.58;;;16.33;;
51384;SDS011;37478;55.682;37.462;2023-04-12T04:52:43;30.73;;;15.93;;
51384;SDS011;37478;55.682;37.462;2023-04-12T04:55:08;31.75;;;17.27;;
51384;SDS011;37478;55.682;37.462;2023-04-12T04:57:34;31.83;;;17.50;;
51384;SDS011;37478;55.682;37.462;2023-04-12T05:00:00;31.92;;;17.80;;
51384;SDS011;37478;55.682;37.462;2023-04-12T05:02:26;31.13;;;17.73;;
51384;SDS011;37478;55.682;37.462;2023-04-12T05:04:51;24.15;;;15.68;;
51384;SDS011;37478;55.682;37.462;2023-04-12T05:07:16;24.63;;;15.48;;
51384;SDS011;37478;55.682;37.462;2023-04-12T05:09:41;24.38;;;12.68;;
51384;SDS011;37478;55.682;37.462;2023-04-12T05:12:07;25.45;;;15.27;;
51384;SDS011;37478;55.682;37.462;2023-04-12T05:14:32;28.40;;;13.57;;
51384;SDS011;37478;55.682;37.462;2023-04-12T05:16:57;23.92;;;12.93;;
51384;SDS011;37478;55.682;37.462;2023-04-12T05:19:23;25.75;;;12.63;;
51384;SDS011;37478;55.682;37.462;2023-04-12T05:21:48;30.38;;;14.82;;
51384;SDS011;37478;55.682;37.462;2023-04-12T05:24:13;29.27;;;12.77;;
51384;SDS011;37478;55.682;37.462;2023-04-12T05:26:39;29.17;;;13.00;;
51384;SDS011;37478;55.682;37.462;2023-04-12T05:29:04;21.70;;;11.25;;
51384;SDS011;37478;55.682;37.462;2023-04-12T05:31:30;22.08;;;10.90;;
51384;SDS011;37478;55.682;37.462;2023-04-12T05:33:56;28.55;;;10.57;;
51384;SDS011;37478;55.682;37.462;2023-04-12T05:36:21;27.48;;;10.68;;
51384;SDS011;37478;55.682;37.462;2023-04-12T05:38:47;20.75;;;9.82;;
51384;SDS011;37478;55.682;37.462;2023-04-12T05:41:12;16.20;;;10.02;;
51384;SDS011;37478;55.682;37.462;2023-04-12T05:43:37;21.05;;;10.77;;
51384;SDS011;37478;55.682;37.462;2023-04-12T05:46:05;18.88;;;10.57;;
51384;SDS011;37478;55.682;37.462;2023-04-12T05:48:35;18.00;;;10.65;;
51384;SDS011;37478;55.682;37.462;2023-04-12T05:51:01;18.52;;;10.48;;
51384;SDS011;37478;55.682;37.462;2023-04-12T05:53:26;26.45;;;10.57;;
51384;SDS011;37478;55.682;37.462;2023-04-12T05:55:53;17.38;;;9.63;;
51384;SDS011;37478;55.682;37.462;2023-04-12T05:58:19;13.82;;;8.88;;
51384;SDS011;37478;55.682;37.462;2023-04-12T06:00:44;18.98;;;10.07;;
51384;SDS011;37478;55.682;37.462;2023-04-12T06:03:10;16.27;;;9.27;;
51384;SDS011;37478;55.682;37.462;2023-04-12T06:05:35;17.42;;;8.82;;
51384;SDS011;37478;55.682;37.462;2023-04-12T06:08:01;28.88;;;9.70;;
51384;SDS011;37478;55.682;37.462;2023-04-12T06:10:26;21.98;;;9.63;;
51384;SDS011;37478;55.682;37.462;2023-04-12T06:12:52;18.27;;;8.95;;
51384;SDS011;37478;55.682;37.462;2023-04-12T06:15:17;15.05;;;9.38;;
51384;SDS011;37478;55.682;37.462;2023-04-12T06:17:44;13.68;;;9.02;;
51384;SDS011;37478;55.682;37.462;2023-04-12T06:20:10;13.93;;;8.27;;
51384;SDS011;37478;55.682;37.462;2023-04-12T06:22:36;21.52;;;8.68;;
51384;SDS011;37478;55.682;37.462;2023-04-12T06:25:01;15.90;;;8.77;;
51384;SDS011;37478;55.682;37.462;2023-04-12T06:27:28;15.45;;;8.27;;
51384;SDS011;37478;55.682;37.462;2023-04-12T06:29:53;16.02;;;7.78;;
51384;SDS011;37478;55.682;37.462;2023-04-12T06:32:18;16.17;;;8.13;;
51384;SDS011;37478;55.682;37.462;2023-04-12T06:34:43;14.98;;;7.22;;
51384;SDS011;37478;55.682;37.462;2023-04-12T06:37:09;15.38;;;7.65;;
51384;SDS011;37478;55.682;37.462;2023-04-12T06:39:34;16.13;;;8.77;;
51384;SDS011;37478;55.682;37.462;2023-04-12T06:42:01;10.45;;;7.22;;
51384;SDS011;37478;55.682;37.462;2023-04-12T06:44:26;15.43;;;7.97;;
51384;SDS011;37478;55.682;37.462;2023-04-12T06:46:52;17.88;;;9.18;;
51384;SDS011;37478;55.682;37.462;2023-04-12T06:49:17;18.88;;;7.80;;
51384;SDS011;37478;55.682;37.462;2023-04-12T06:51:42;14.90;;;8.48;;
51384;SDS011;37478;55.682;37.462;2023-04-12T06:54:08;17.50;;;8.40;;
51384;SDS011;37478;55.682;37.462;2023-04-12T06:56:35;14.48;;;7.90;;
51384;SDS011;37478;55.682;37.462;2023-04-12T06:59:00;17.17;;;8.88;;
51384;SDS011;37478;55.682;37.462;2023-04-12T07:01:26;17.27;;;9.15;;
51384;SDS011;37478;55.682;37.462;2023-04-12T07:03:51;15.07;;;9.10;;
51384;SDS011;37478;55.682;37.462;2023-04-12T07:06:16;19.92;;;8.90;;
51384;SDS011;37478;55.682;37.462;2023-04-12T07:08:41;16.15;;;9.65;;
51384;SDS011;37478;55.682;37.462;2023-04-12T07:11:07;16.98;;;9.18;;
51384;SDS011;37478;55.682;37.462;2023-04-12T07:13:32;14.73;;;8.85;;
51384;SDS011;37478;55.682;37.462;2023-04-12T07:15:57;15.45;;;9.73;;
51384;SDS011;37478;55.682;37.462;2023-04-12T07:18:24;24.00;;;11.35;;
51384;SDS011;37478;55.682;37.462;2023-04-12T07:20:54;24.20;;;10.75;;
51384;SDS011;37478;55.682;37.462;2023-04-12T07:23:20;19.73;;;10.75;;
51384;SDS011;37478;55.682;37.462;2023-04-12T07:25:45;18.02;;;10.43;;
51384;SDS011;37478;55.682;37.462;2023-04-12T07:28:10;18.25;;;11.90;;
51384;SDS011;37478;55.682;37.462;2023-04-12T07:30:39;14.50;;;10.35;;
51384;SDS011;37478;55.682;37.462;2023-04-12T07:33:04;14.77;;;9.98;;
51384;SDS011;37478;55.682;37.462;2023-04-12T07:35:30;16.27;;;10.32;;
51384;SDS011;37478;55.682;37.462;2023-04-12T07:37:56;18.92;;;11.02;;
51384;SDS011;37478;55.682;37.462;2023-04-12T07:40:22;21.55;;;12.35;;
51384;SDS011;37478;55.682;37.462;2023-04-12T07:42:47;22.27;;;13.68;;
51384;SDS011;37478;55.682;37.462;2023-04-12T07:45:12;23.73;;;11.02;;
51384;SDS011;37478;55.682;37.462;2023-04-12T07:47:37;18.50;;;12.07;;
51384;SDS011;37478;55.682;37.462;2023-04-12T07:50:03;22.52;;;12.13;;
51384;SDS011;37478;55.682;37.462;2023-04-12T07:52:29;22.85;;;13.35;;
51384;SDS011;37478;55.682;37.462;2023-04-12T07:54:54;24.92;;;12.02;;
51384;SDS011;37478;55.682;37.462;2023-04-12T07:57:19;22.45;;;12.35;;
51384;SDS011;37478;55.682;37.462;2023-04-12T07:59:45;20.85;;;11.77;;
51384;SDS011;37478;55.682;37.462;2023-04-12T08:02:11;19.92;;;11.98;;
51384;SDS011;37478;55.682;37.462;2023-04-12T08:04:36;19.73;;;12.40;;
51384;SDS011;37478;55.682;37.462;2023-04-12T08:07:02;22.23;;;12.45;;
51384;SDS011;37478;55.682;37.462;2023-04-12T08:09:27;24.10;;;12.95;;
51384;SDS011;37478;55.682;37.462;2023-04-12T08:11:53;20.42;;;11.27;;
51384;SDS011;37478;55.682;37.462;2023-04-12T08:14:18;22.23;;;12.98;;
51384;SDS011;37478;55.682;37.462;2023-04-12T08:16:44;18.92;;;12.50;;
51384;SDS011;37478;55.682;37.462;2023-04-12T08:19:09;19.02;;;11.25;;
51384;SDS011;37478;55.682;37.462;2023-04-12T08:21:34;19.55;;;10.88;;
51384;SDS011;37478;55.682;37.462;2023-04-12T08:24:00;19.85;;;10.40;;
51384;SDS011;37478;55.682;37.462;2023-04-12T08:26:25;16.67;;;9.70;;
51384;SDS011;37478;55.682;37.462;2023-04-12T08:28:51;17.70;;;11.27;;
51384;SDS011;37478;55.682;37.462;2023-04-12T08:31:16;16.70;;;9.50;;
51384;SDS011;37478;55.682;37.462;2023-04-12T08:33:42;17.65;;;9.98;;
51384;SDS011;37478;55.682;37.462;2023-04-12T08:36:07;13.63;;;8.40;;
51384;SDS011;37478;55.682;37.462;2023-04-12T08:38:33;18.38;;;9.35;;
51384;SDS011;37478;55.682;37.462;2023-04-12T08:40:58;13.57;;;8.27;;
51384;SDS011;37478;55.682;37.462;2023-04-12T08:43:27;14.05;;;8.65;;
51384;SDS011;37478;55.682;37.462;2023-04-12T08:45:53;19.67;;;10.05;;
51384;SDS011;37478;55.682;37.462;2023-04-12T08:48:18;16.42;;;9.57;;
51384;SDS011;37478;55.682;37.462;2023-04-12T08:50:46;14.85;;;10.15;;
51384;SDS011;37478;55.682;37.462;2023-04-12T08:53:11;21.35;;;9.88;;
51384;SDS011;37478;55.682;37.462;2023-04-12T08:55:37;17.90;;;9.52;;
51384;SDS011;37478;55.682;37.462;2023-04-12T08:58:02;13.32;;;8.70;;
51384;SDS011;37478;55.682;37.462;2023-04-12T09:00:31;14.95;;;9.07;;
51384;SDS011;37478;55.682;37.462;2023-04-12T09:02:57;17.52;;;8.45;;
51384;SDS011;37478;55.682;37.462;2023-04-12T09:05:28;14.25;;;9.77;;
51384;SDS011;37478;55.682;37.462;2023-04-12T09:07:54;15.52;;;8.23;;
51384;SDS011;37478;55.682;37.462;2023-04-12T09:10:29;14.43;;;7.85;;
51384;SDS011;37478;55.682;37.462;2023-04-12T09:12:55;13.90;;;8.48;;
51384;SDS011;37478;55.682;37.462;2023-04-12T09:15:20;17.23;;;9.40;;
51384;SDS011;37478;55.682;37.462;2023-04-12T09:17:45;12.73;;;7.47;;
51384;SDS011;37478;55.682;37.462;2023-04-12T09:22:41;14.35;;;8.27;;
51384;SDS011;37478;55.682;37.462;2023-04-12T09:25:10;11.75;;;8.23;;
51384;SDS011;37478;55.682;37.462;2023-04-12T09:27:45;12.88;;;7.88;;
51384;SDS011;37478;55.682;37.462;2023-04-12T09:30:11;12.07;;;7.93;;
51384;SDS011;37478;55.682;37.462;2023-04-12T09:32:37;16.05;;;8.18;;
51384;SDS011;37478;55.682;37.462;2023-04-12T09:35:02;15.63;;;7.93;;
51384;SDS011;37478;55.682;37.462;2023-04-12T09:37:29;24.38;;;8.20;;
51384;SDS011;37478;55.682;37.462;2023-04-12T09:40:02;11.48;;;7.90;;
51384;SDS011;37478;55.682;37.462;2023-04-12T09:42:29;15.38;;;8.95;;
51384;SDS011;37478;55.682;37.462;2023-04-12T09:44:55;13.75;;;8.73;;
51384;SDS011;37478;55.682;37.462;2023-04-12T09:47:20;14.25;;;8.38;;
51384;SDS011;37478;55.682;37.462;2023-04-12T09:49:45;11.75;;;7.55;;
51384;SDS011;37478;55.682;37.462;2023-04-12T09:52:12;12.77;;;7.90;;
51384;SDS011;37478;55.682;37.462;2023-04-12T09:54:44;15.00;;;8.13;;
51384;SDS011;37478;55.682;37.462;2023-04-12T09:57:10;14.93;;;9.45;;
51384;SDS011;37478;55.682;37.462;2023-04-12T09:59:37;16.60;;;8.60;;
51384;SDS011;37478;55.682;37.462;2023-04-12T10:04:38;13.85;;;8.45;;
51384;SDS011;37478;55.682;37.462;2023-04-12T10:07:03;11.93;;;8.25;;
51384;SDS011;37478;55.682;37.462;2023-04-12T10:09:29;13.23;;;7.97;;
51384;SDS011;37478;55.682;37.462;2023-04-12T10:11:55;13.80;;;8.90;;
51384;SDS011;37478;55.682;37.462;2023-04-12T10:14:21;13.98;;;8.02;;
51384;SDS011;37478;55.682;37.462;2023-04-12T10:16:47;14.43;;;8.13;;
51384;SDS011;37478;55.682;37.462;2023-04-12T10:19:13;12.35;;;7.88;;
51384;SDS011;37478;55.682;37.462;2023-04-12T10:21:38;15.02;;;9.52;;
51384;SDS011;37478;55.682;37.462;2023-04-12T10:24:03;16.05;;;8.68;;
51384;SDS011;37478;55.682;37.462;2023-04-12T10:26:30;13.35;;;8.15;;
51384;SDS011;37478;55.682;37.462;2023-04-12T10:31:40;12.23;;;7.78;;
51384;SDS011;37478;55.682;37.462;2023-04-12T10:34:06;13.48;;;7.78;;
51384;SDS011;37478;55.682;37.462;2023-04-12T10:39:15;11.75;;;7.95;;
51384;SDS011;37478;55.682;37.462;2023-04-12T10:42:02;13.90;;;7.35;;
51384;SDS011;37478;55.682;37.462;2023-04-12T10:44:26;10.57;;;8.13;;
51384;SDS011;37478;55.682;37.462;2023-04-12T10:46:51;13.32;;;7.88;;
51384;SDS011;37478;55.682;37.462;2023-04-12T10:49:17;13.52;;;9.18;;
51384;SDS011;37478;55.682;37.462;2023-04-12T10:56:52;11.95;;;7.43;;
51384;SDS011;37478;55.682;37.462;2023-04-12T10:59:17;10.10;;;7.45;;
51384;SDS011;37478;55.682;37.462;2023-04-12T11:04:27;14.63;;;7.97;;
51384;SDS011;37478;55.682;37.462;2023-04-12T11:11:46;13.07;;;7.47;;
51384;SDS011;37478;55.682;37.462;2023-04-12T11:14:13;13.75;;;7.60;;
51384;SDS011;37478;55.682;37.462;2023-04-12T11:17:39;13.75;;;8.95;;
51384;SDS011;37478;55.682;37.462;2023-04-12T11:19:44;14.60;;;8.02;;
51384;SDS011;37478;55.682;37.462;2023-04-12T11:22:10;11.88;;;8.43;;
51384;SDS011;37478;55.682;37.462;2023-04-12T11:24:37;16.30;;;8.25;;
51384;SDS011;37478;55.682;37.462;2023-04-12T11:27:02;16.63;;;8.63;;
51384;SDS011;37478;55.682;37.462;2023-04-12T11:29:28;16.48;;;7.78;;
51384;SDS011;37478;55.682;37.462;2023-04-12T11:31:53;13.35;;;8.50;;
51384;SDS011;37478;55.682;37.462;2023-04-12T11:34:20;15.55;;;8.40;;
51384;SDS011;37478;55.682;37.462;2023-04-12T11:36:45;11.70;;;6.78;;
51384;SDS011;37478;55.682;37.462;2023-04-12T11:39:11;9.85;;;6.90;;
51384;SDS011;37478;55.682;37.462;2023-04-12T11:41:37;16.05;;;8.45;;
51384;SDS011;37478;55.682;37.462;2023-04-12T11:44:07;16.73;;;9.00;;
51384;SDS011;37478;55.682;37.462;2023-04-12T11:46:33;10.88;;;7.57;;
51384;SDS011;37478;55.682;37.462;2023-04-12T11:48:59;16.65;;;8.77;;
51384;SDS011;37478;55.682;37.462;2023-04-12T11:51:24;20.45;;;8.57;;
51384;SDS011;37478;55.682;37.462;2023-04-12T11:53:52;12.77;;;7.97;;
51384;SDS011;37478;55.682;37.462;2023-04-12T11:56:18;15.95;;;7.70;;
51384;SDS011;37478;55.682;37.462;2023-04-12T11:58:45;17.70;;;8.88;;
51384;SDS011;37478;55.682;37.462;2023-04-12T12:01:12;14.95;;;8.02;;
51384;SDS011;37478;55.682;37.462;2023-04-12T12:03:38;11.90;;;7.82;;
51384;SDS011;37478;55.682;37.462;2023-04-12T12:06:03;13.18;;;8.88;;
51384;SDS011;37478;55.682;37.462;2023-04-12T12:08:29;13.25;;;7.85;;
51384;SDS011;37478;55.682;37.462;2023-04-12T12:10:55;15.88;;;7.68;;
51384;SDS011;37478;55.682;37.462;2023-04-12T12:13:20;16.65;;;8.32;;
51384;SDS011;37478;55.682;37.462;2023-04-12T12:15:45;14.93;;;7.70;;
51384;SDS011;37478;55.682;37.462;2023-04-12T12:18:11;10.88;;;7.55;;
51384;SDS011;37478;55.682;37.462;2023-04-12T12:20:48;14.73;;;7.80;;
51384;SDS011;37478;55.682;37.462;2023-04-12T12:23:29;12.57;;;7.65;;
51384;SDS011;37478;55.682;37.462;2023-04-12T12:25:58;10.88;;;7.03;;
51384;SDS011;37478;55.682;37.462;2023-04-12T12:28:24;10.40;;;7.68;;
51384;SDS011;37478;55.682;37.462;2023-04-12T12:30:55;9.00;;;7.53;;
51384;SDS011;37478;55.682;37.462;2023-04-12T12:33:21;10.68;;;7.40;;
51384;SDS011;37478;55.682;37.462;2023-04-12T12:35:53;11.32;;;7.05;;
51384;SDS011;37478;55.682;37.462;2023-04-12T12:38:18;15.43;;;7.57;;
51384;SDS011;37478;55.682;37.462;2023-04-12T12:40:45;10.02;;;7.68;;
51384;SDS011;37478;55.682;37.462;2023-04-12T12:43:15;10.77;;;7.25;;
51384;SDS011;37478;55.682;37.462;2023-04-12T12:45:41;11.50;;;7.40;;
51384;SDS011;37478;55.682;37.462;2023-04-12T12:48:06;17.52;;;7.35;;
51384;SDS011;37478;55.682;37.462;2023-04-12T12:50:32;9.13;;;6.72;;
51384;SDS011;37478;55.682;37.462;2023-04-12T12:52:58;11.95;;;7.03;;
51384;SDS011;37478;55.682;37.462;2023-04-12T13:08:36;14.77;;;7.88;;
51384;SDS011;37478;55.682;37.462;2023-04-12T13:11:01;9.90;;;7.53;;
51384;SDS011;37478;55.682;37.462;2023-04-12T13:13:27;12.80;;;8.30;;
51384;SDS011;37478;55.682;37.462;2023-04-12T13:15:52;24.60;;;11.90;;
51384;SDS011;37478;55.682;37.462;2023-04-12T13:18:17;13.43;;;7.95;;
51384;SDS011;37478;55.682;37.462;2023-04-12T13:20:44;12.18;;;7.93;;
51384;SDS011;37478;55.682;37.462;2023-04-12T13:23:09;12.15;;;7.25;;
51384;SDS011;37478;55.682;37.462;2023-04-12T13:25:35;14.77;;;7.25;;
51384;SDS011;37478;55.682;37.462;2023-04-12T13:28:00;12.63;;;7.15;;
51384;SDS011;37478;55.682;37.462;2023-04-12T13:30:25;17.05;;;8.02;;
51384;SDS011;37478;55.682;37.462;2023-04-12T13:32:51;13.98;;;7.55;;
51384;SDS011;37478;55.682;37.462;2023-04-12T13:35:17;16.05;;;7.60;;
51384;SDS011;37478;55.682;37.462;2023-04-12T13:37:42;11.65;;;7.38;;
51384;SDS011;37478;55.682;37.462;2023-04-12T13:40:07;7.97;;;6.70;;
51384;SDS011;37478;55.682;37.462;2023-04-12T13:42:33;12.23;;;7.03;;
51384;SDS011;37478;55.682;37.462;2023-04-12T13:44:58;11.50;;;7.50;;
51384;SDS011;37478;55.682;37.462;2023-04-12T13:47:25;11.75;;;6.63;;
51384;SDS011;37478;55.682;37.462;2023-04-12T13:49:50;12.70;;;7.00;;
51384;SDS011;37478;55.682;37.462;2023-04-12T13:52:15;15.07;;;8.38;;
51384;SDS011;37478;55.682;37.462;2023-04-12T13:54:41;12.98;;;7.10;;
51384;SDS011;37478;55.682;37.462;2023-04-12T13:57:07;14.60;;;7.20;;
51384;SDS011;37478;55.682;37.462;2023-04-12T13:59:32;9.68;;;7.32;;
51384;SDS011;37478;55.682;37.462;2023-04-12T14:01:59;10.63;;;7.35;;
51384;SDS011;37478;55.682;37.462;2023-04-12T14:04:26;12.05;;;7.35;;
51384;SDS011;37478;55.682;37.462;2023-04-12T14:06:51;11.63;;;7.38;;
51384;SDS011;37478;55.682;37.462;2023-04-12T14:20:15;11.73;;;7.50;;
51384;SDS011;37478;55.682;37.462;2023-04-12T14:22:40;12.95;;;7.30;;
51384;SDS011;37478;55.682;37.462;2023-04-12T14:25:06;11.77;;;7.05;;
51384;SDS011;37478;55.682;37.462;2023-04-12T14:27:32;14.30;;;7.18;;
51384;SDS011;37478;55.682;37.462;2023-04-12T14:29:59;10.43;;;6.47;;
51384;SDS011;37478;55.682;37.462;2023-04-12T14:32:24;13.40;;;7.10;;
51384;SDS011;37478;55.682;37.462;2023-04-12T14:34:50;12.23;;;7.07;;
51384;SDS011;37478;55.682;37.462;2023-04-12T14:37:15;13.02;;;5.93;;
51384;SDS011;37478;55.682;37.462;2023-04-12T14:39:40;9.50;;;6.57;;
51384;SDS011;37478;55.682;37.462;2023-04-12T14:42:06;12.30;;;6.38;;
51384;SDS011;37478;55.682;37.462;2023-04-12T14:44:31;9.13;;;6.25;;
51384;SDS011;37478;55.682;37.462;2023-04-12T14:46:57;10.85;;;6.50;;
51384;SDS011;37478;55.682;37.462;2023-04-12T14:49:22;11.15;;;7.10;;
51384;SDS011;37478;55.682;37.462;2023-04-12T14:51:47;12.75;;;6.97;;
51384;SDS011;37478;55.682;37.462;2023-04-12T14:54:12;11.63;;;7.05;;
51384;SDS011;37478;55.682;37.462;2023-04-12T14:56:38;12.48;;;6.32;;
51384;SDS011;37478;55.682;37.462;2023-04-12T14:59:03;12.98;;;6.90;;
51384;SDS011;37478;55.682;37.462;2023-04-12T15:01:29;12.98;;;6.78;;
51384;SDS011;37478;55.682;37.462;2023-04-12T15:03:54;12.82;;;7.30;;
51384;SDS011;37478;55.682;37.462;2023-04-12T15:06:21;10.45;;;6.75;;
51384;SDS011;37478;55.682;37.462;2023-04-12T15:08:46;11.10;;;8.00;;
51384;SDS011;37478;55.682;37.462;2023-04-12T15:11:13;9.77;;;6.50;;
51384;SDS011;37478;55.682;37.462;2023-04-12T15:13:39;12.95;;;7.43;;